Hanahan, SC (29410)

11:16 AM EST on December 04, 2016 (GMT -0500)
Pasture View Drive | | Change Station

Elev 45 ft 32.93 °N, 80.00 °W | Updated 1 minute ago

Overcast
Overcast
55.4 °F
Feels Like 55.4 °F
N
5.0
Wind Variable Wind from North
Gusts 13.7 mph

Today
High -- | Low -- °F
--% Chance of Precip.
Yesterday
High -- | Low -- °F
Precip. -- in
Pressure 30.23 in
Visibility 10.0 miles
Clouds Mostly Cloudy 5000 ft
Overcast 10000 ft
Dew Point 45 °F
Humidity 68%
Rainfall 0.00 in
Snow Depth Not available.
7:07 AM 5:13 PM
Waxing Crescent, 23% visible
METAR KCHS 041556Z 07006KT 10SM BKN050 OVC100 13/05 A3023 RMK AO2 SLP235 T01330050
Pressure 30.23 in
Visibility 10.0 miles
Clouds Mostly Cloudy 5000 ft
Overcast 10000 ft
Dew Point 45 °F
Humidity 68%
Rainfall 0.00 in
Snow Depth Not available.
7:07 AM 5:13 PM
Waxing Crescent, 23% visible
METAR KCHS 041556Z 07006KT 10SM BKN050 OVC100 13/05 A3023 RMK AO2 SLP235 T01330050

10-Day Weather Forecast

Almanac

Astronomy

Dec. 04, 2016 Rise Set
Actual Time
Civil Twilight
Nautical Twilight
Astronomical Twilight
Moon
Length of Visible Light
Length of Day
Tomorrow will be .
, % of the Moon is Illuminated

Today's Extremes

State Highs State Lows

Community

WunderPhotos

Upload Photos

1,955,616 photos uploaded!

WunderBlog® & News

Nearby

Air Quality

  Air Quality AQ Index Pollutant
Not available.

Snow Depth

Station Depth Elevation

Earthquake Activity

City Distance Mag. Time & Date
Minimum magnitude displayed is 2.5.

Coastal Water Temperatures

Place Temperature

Stations

Nearby Weather Stations

Station Location Temp. Windchill Dew Point Humidity Wind Precip. Elev Updated Type
                   

Watches & Warnings

There are currently no watches in effect.